Time;durP1;ratioP1;P1;durP2;ratioP2;P2;SDS_P1;SDS_P2;PMS_P1;PMS_P2;Temp;Humidity;BMP_temperature;BMP_pressure;BME280_temperature;BME280_humidity;BME280_pressure;Samples;Min_cycle;Max_cycle;Signal;HPM_P1;HPM_P2
2024/05/03 00:00:32;;;;;;;5.68;2.38;;;20.40;5.00;;;;;;5376120;26;20258;-70
2024/05/03 00:02:57;;;;;;;5.78;2.83;;;20.40;5.00;;;;;;5376528;26;20228;-71
2024/05/03 00:05:23;;;;;;;7.88;2.53;;;20.40;5.00;;;;;;5376018;26;20772;-71
2024/05/03 00:07:49;;;;;;;9.73;2.83;;;20.50;5.00;;;;;;5376285;26;20285;-71
2024/05/03 00:10:15;;;;;;;7.28;2.50;;;20.50;5.00;;;;;;5376160;26;20319;-70
2024/05/03 00:12:40;;;;;;;4.95;2.70;;;20.50;5.00;;;;;;5374839;26;20254;-69
2024/05/03 00:15:06;;;;;;;4.75;2.45;;;20.50;5.00;;;;;;5374123;26;20231;-70
2024/05/03 00:17:32;;;;;;;6.65;2.92;;;20.50;5.00;;;;;;5376259;26;20228;-70
2024/05/03 00:19:57;;;;;;;6.15;2.65;;;20.50;5.00;;;;;;5375917;26;20227;-70
2024/05/03 00:22:23;;;;;;;6.78;3.35;;;20.60;5.00;;;;;;5375906;26;20676;-70
2024/05/03 00:24:49;;;;;;;10.13;3.80;;;20.60;5.00;;;;;;5375484;26;20227;-71
2024/05/03 00:27:17;;;;;;;2.85;2.47;;;20.60;5.00;;;;;;5375991;26;20261;-70
2024/05/03 00:29:43;;;;;;;10.18;3.08;;;20.60;5.00;;;;;;5375732;26;20216;-69
2024/05/03 00:32:10;;;;;;;7.13;2.70;;;20.50;5.00;;;;;;5375925;26;20260;-70
2024/05/03 00:34:36;;;;;;;11.20;3.00;;;20.60;5.00;;;;;;5375855;26;20312;-70
2024/05/03 00:37:01;;;;;;;6.60;2.78;;;20.50;5.00;;;;;;5375469;26;20228;-70
2024/05/03 00:39:27;;;;;;;9.15;3.05;;;20.50;5.00;;;;;;5375474;26;20673;-70
2024/05/03 00:41:52;;;;;;;7.40;2.92;;;20.50;5.00;;;;;;5376473;26;20685;-70
2024/05/03 00:44:18;;;;;;;7.13;3.83;;;20.50;5.00;;;;;;5379109;26;20236;-70
2024/05/03 00:46:43;;;;;;;6.22;2.75;;;20.40;5.00;;;;;;5379015;26;20254;-70
2024/05/03 00:49:09;;;;;;;7.63;3.20;;;20.50;5.00;;;;;;5378850;26;20795;-70
2024/05/03 00:51:35;;;;;;;8.35;2.75;;;20.40;5.00;;;;;;5378858;26;20559;-71
2024/05/03 00:54:01;;;;;;;7.75;3.00;;;20.30;5.00;;;;;;5391940;21;20219;-73
2024/05/03 00:56:27;;;;;;;4.50;2.53;;;20.30;5.00;;;;;;5362712;26;20255;-72
2024/05/03 00:58:54;;;;;;;4.93;2.80;;;20.30;5.00;;;;;;5343874;26;20225;-72
2024/05/03 01:01:20;;;;;;;11.23;3.30;;;20.30;5.00;;;;;;5343767;26;20233;-72
2024/05/03 01:03:45;;;;;;;5.60;2.75;;;20.40;5.00;;;;;;5037339;21;10000522;-70
2024/05/03 01:06:11;;;;;;;9.38;3.13;;;20.30;5.00;;;;;;5382300;26;20223;-70
2024/05/03 01:08:37;;;;;;;3.70;2.45;;;20.30;5.00;;;;;;5413743;26;20219;-69
2024/05/03 01:11:03;;;;;;;11.88;3.08;;;20.30;5.00;;;;;;5382608;26;20836;-69
2024/05/03 01:13:28;;;;;;;8.73;3.25;;;20.30;5.00;;;;;;5382795;26;20235;-70
2024/05/03 01:15:53;;;;;;;5.15;2.63;;;20.30;5.00;;;;;;5414120;26;20230;-69
2024/05/03 01:18:19;;;;;;;8.73;3.00;;;20.30;5.00;;;;;;5414729;26;20219;-69
2024/05/03 01:20:44;;;;;;;10.23;3.40;;;20.30;5.00;;;;;;5414561;26;20272;-69
2024/05/03 01:23:13;;;;;;;5.70;3.15;;;20.30;5.00;;;;;;5414262;26;20569;-68
2024/05/03 01:25:43;;;;;;;6.32;3.13;;;20.30;5.00;;;;;;5413718;26;20335;-69
2024/05/03 01:28:09;;;;;;;7.82;3.00;;;20.20;5.00;;;;;;5413866;26;20770;-69
2024/05/03 01:30:34;;;;;;;6.20;2.72;;;20.10;5.00;;;;;;5414389;26;20273;-69
2024/05/03 01:32:59;;;;;;;6.57;3.08;;;20.20;5.00;;;;;;5414114;26;20238;-69
2024/05/03 01:35:25;;;;;;;7.95;2.90;;;20.10;5.00;;;;;;5382425;26;20238;-69
2024/05/03 01:37:50;;;;;;;4.65;3.38;;;20.00;5.00;;;;;;5383051;26;20230;-69
2024/05/03 01:40:16;;;;;;;3.42;3.03;;;20.00;5.00;;;;;;5413702;26;20227;-69
2024/05/03 01:42:41;;;;;;;4.60;3.38;;;20.10;5.00;;;;;;5413933;26;20238;-69
2024/05/03 01:45:07;;;;;;;6.38;2.95;;;20.00;5.00;;;;;;5413972;26;21016;-70
2024/05/03 01:47:32;;;;;;;3.10;2.63;;;20.00;5.00;;;;;;5414031;26;20269;-69
2024/05/03 01:50:00;;;;;;;6.20;3.30;;;20.00;5.00;;;;;;5413513;26;20634;-69
2024/05/03 01:52:26;;;;;;;9.00;3.58;;;19.90;5.00;;;;;;5413273;26;20238;-70
2024/05/03 01:54:51;;;;;;;6.68;3.40;;;19.90;5.00;;;;;;5413499;26;20314;-69
2024/05/03 01:57:17;;;;;;;6.25;3.35;;;19.80;5.00;;;;;;5413757;26;20223;-69
2024/05/03 01:59:42;;;;;;;7.45;3.40;;;19.80;5.00;;;;;;5413737;26;20222;-69
2024/05/03 02:02:08;;;;;;;6.90;3.35;;;19.80;5.00;;;;;;5413781;26;20243;-69
2024/05/03 02:04:33;;;;;;;6.32;3.50;;;19.70;5.00;;;;;;5413802;26;20289;-69
2024/05/03 02:06:59;;;;;;;12.27;3.72;;;19.60;5.00;;;;;;5381862;26;20576;-69
2024/05/03 02:09:24;;;;;;;9.57;3.78;;;19.60;5.00;;;;;;5413687;26;20227;-69
2024/05/03 02:11:50;;;;;;;11.02;3.75;;;19.60;5.00;;;;;;5413705;26;20222;-70
2024/05/03 02:14:15;;;;;;;8.95;3.47;;;19.50;5.00;;;;;;5413432;26;20327;-69
2024/05/03 02:16:41;;;;;;;8.07;3.63;;;19.40;5.00;;;;;;5413291;26;20866;-69
2024/05/03 02:19:06;;;;;;;10.95;4.13;;;19.30;5.00;;;;;;5413510;26;20273;-69
2024/05/03 02:21:31;;;;;;;5.72;3.70;;;19.20;5.00;;;;;;5382136;26;20729;-69
2024/05/03 02:23:57;;;;;;;5.40;3.95;;;19.20;5.00;;;;;;5413015;26;20315;-69
2024/05/03 02:26:22;;;;;;;9.20;4.28;;;19.10;5.00;;;;;;5382208;26;20279;-69
2024/05/03 02:28:48;;;;;;;9.68;3.65;;;19.10;5.00;;;;;;5358921;26;20994;-69
2024/05/03 02:31:13;;;;;;;8.07;4.93;;;19.10;5.00;;;;;;5376869;26;20227;-69
2024/05/03 02:33:39;;;;;;;5.15;3.90;;;19.00;5.00;;;;;;5376983;26;20314;-69
2024/05/03 02:36:05;;;;;;;9.15;4.07;;;19.10;5.00;;;;;;5376902;26;20396;-69
2024/05/03 02:38:31;;;;;;;9.43;3.42;;;19.00;5.00;;;;;;5360731;26;20310;-69
2024/05/03 02:40:56;;;;;;;6.18;3.75;;;19.00;5.00;;;;;;5376497;26;20288;-69
2024/05/03 02:43:22;;;;;;;8.50;4.25;;;18.90;5.00;;;;;;5377186;26;20270;-69
2024/05/03 02:45:47;;;;;;;10.15;4.07;;;18.80;5.00;;;;;;5376773;26;20721;-69
2024/05/03 02:48:13;;;;;;;12.32;4.55;;;18.80;5.00;;;;;;5376968;26;20232;-69
2024/05/03 02:50:38;;;;;;;6.68;4.25;;;18.70;5.00;;;;;;5360436;26;20232;-69
2024/05/03 02:53:04;;;;;;;7.28;4.00;;;18.60;5.00;;;;;;5376853;26;20274;-68
2024/05/03 02:55:29;;;;;;;9.63;5.05;;;18.70;5.00;;;;;;5376665;26;20228;-69
2024/05/03 02:57:55;;;;;;;7.47;4.15;;;18.60;5.00;;;;;;5377278;26;20559;-69
2024/05/03 03:00:20;;;;;;;5.60;4.22;;;18.90;5.00;;;;;;5376917;26;20235;-70
2024/05/03 03:02:46;;;;;;;5.85;3.90;;;18.50;5.00;;;;;;5377361;26;20340;-69
2024/05/03 03:05:11;;;;;;;8.52;4.63;;;18.50;5.00;;;;;;5375511;26;20219;-69
2024/05/03 03:07:37;;;;;;;8.30;4.50;;;18.50;5.00;;;;;;5376979;26;20679;-69
2024/05/03 03:10:04;;;;;;;6.25;3.97;;;18.40;5.00;;;;;;5377164;26;20340;-69
2024/05/03 03:12:30;;;;;;;10.35;5.22;;;18.40;5.00;;;;;;5377295;26;20290;-69
2024/05/03 03:14:56;;;;;;;5.45;4.15;;;18.40;5.00;;;;;;5376919;26;20232;-69
2024/05/03 03:17:21;;;;;;;6.82;4.05;;;18.30;5.00;;;;;;5377661;26;20274;-70
2024/05/03 03:19:49;;;;;;;9.80;4.20;;;18.20;5.20;;;;;;5375344;26;20644;-69
2024/05/03 03:22:15;;;;;;;7.57;3.90;;;18.20;5.50;;;;;;5376928;26;20839;-69
2024/05/03 03:24:41;;;;;;;6.75;3.65;;;18.20;5.40;;;;;;5377075;26;20303;-69
2024/05/03 03:27:07;;;;;;;11.50;4.70;;;18.10;5.80;;;;;;5375259;26;20232;-69
2024/05/03 03:29:35;;;;;;;6.70;3.92;;;18.10;6.20;;;;;;5377201;26;20782;-69
2024/05/03 03:32:01;;;;;;;9.68;4.57;;;18.00;6.40;;;;;;5377071;26;20236;-69
2024/05/03 03:34:28;;;;;;;7.90;4.07;;;17.90;6.90;;;;;;5376896;26;20265;-69
2024/05/03 03:36:54;;;;;;;10.82;4.38;;;17.80;7.00;;;;;;5376424;26;20754;-69
2024/05/03 03:39:19;;;;;;;7.13;4.00;;;17.80;7.60;;;;;;5376392;26;20268;-69
2024/05/03 03:41:45;;;;;;;6.20;4.45;;;17.70;8.00;;;;;;5376964;26;20220;-69
2024/05/03 03:44:11;;;;;;;7.72;4.43;;;17.80;8.60;;;;;;5375265;26;20312;-69
2024/05/03 03:46:36;;;;;;;6.78;4.85;;;17.70;8.60;;;;;;5376333;26;20302;-69
2024/05/03 03:49:02;;;;;;;5.72;3.95;;;17.70;8.80;;;;;;5376564;26;20684;-69
2024/05/03 03:51:27;;;;;;;11.68;5.32;;;17.70;9.00;;;;;;5376356;26;20224;-69
2024/05/03 03:53:53;;;;;;;7.20;5.20;;;17.70;9.60;;;;;;5376681;26;20243;-70
2024/05/03 03:56:18;;;;;;;9.30;4.22;;;17.80;9.50;;;;;;5376009;26;20223;-69
2024/05/03 03:58:44;;;;;;;38.35;6.70;;;17.70;9.50;;;;;;5376689;26;20227;-69
2024/05/03 04:01:09;;;;;;;8.82;4.25;;;17.70;9.90;;;;;;5375946;26;20835;-69
2024/05/03 04:03:35;;;;;;;9.52;4.43;;;17.70;10.10;;;;;;5375791;26;20232;-69
2024/05/03 04:06:01;;;;;;;8.75;4.95;;;17.80;9.90;;;;;;5375871;26;20220;-69
2024/05/03 04:08:26;;;;;;;7.05;5.50;;;17.80;9.20;;;;;;5376403;26;20272;-69
2024/05/03 04:10:53;;;;;;;8.90;4.90;;;17.80;9.60;;;;;;5374724;26;20250;-69
2024/05/03 04:13:18;;;;;;;9.07;5.03;;;17.70;9.50;;;;;;5376120;26;20251;-69
2024/05/03 04:15:44;;;;;;;8.00;4.78;;;17.70;9.70;;;;;;5376495;26;20875;-69
2024/05/03 04:18:10;;;;;;;9.18;4.93;;;17.70;10.20;;;;;;5379879;26;20232;-69
2024/05/03 04:20:36;;;;;;;9.60;5.40;;;17.60;10.00;;;;;;5379309;26;20358;-68
2024/05/03 04:23:02;;;;;;;8.00;4.95;;;17.70;10.20;;;;;;5379546;26;20232;-69
2024/05/03 04:25:28;;;;;;;8.50;5.40;;;17.60;10.30;;;;;;5379443;26;20283;-69
2024/05/03 04:27:53;;;;;;;12.43;5.07;;;17.60;10.20;;;;;;5377808;26;20228;-69
2024/05/03 04:30:18;;;;;;;10.57;4.40;;;17.60;10.00;;;;;;5379484;26;20758;-69
2024/05/03 04:32:44;;;;;;;6.70;5.10;;;17.50;10.30;;;;;;5379381;26;20279;-69
2024/05/03 04:35:09;;;;;;;8.98;4.85;;;17.50;10.70;;;;;;5377296;26;20235;-69
2024/05/03 04:37:35;;;;;;;10.25;4.80;;;17.40;10.50;;;;;;5379687;26;20235;-69
2024/05/03 04:40:01;;;;;;;7.13;5.15;;;17.40;10.60;;;;;;5379117;26;20231;-69
2024/05/03 04:42:27;;;;;;;6.78;5.10;;;17.40;10.60;;;;;;5379247;26;20240;-69
2024/05/03 04:44:54;;;;;;;7.95;5.57;;;17.30;11.20;;;;;;5379458;26;20344;-69
2024/05/03 04:47:20;;;;;;;12.35;6.03;;;17.20;11.20;;;;;;5378708;26;20348;-69
2024/05/03 04:49:46;;;;;;;5.35;4.82;;;17.20;11.60;;;;;;5378179;26;20771;-69
2024/05/03 04:52:12;;;;;;;10.38;5.38;;;17.20;12.00;;;;;;5379101;26;20232;-69
2024/05/03 04:54:38;;;;;;;9.15;5.43;;;17.10;12.30;;;;;;5378493;26;20296;-69
2024/05/03 04:57:03;;;;;;;13.10;5.90;;;17.30;12.40;;;;;;5378526;26;20251;-69
2024/05/03 04:59:29;;;;;;;8.90;5.32;;;17.10;12.70;;;;;;5362462;26;20240;-69
2024/05/03 05:01:54;;;;;;;8.70;5.13;;;17.10;13.10;;;;;;5378325;26;20232;-69
2024/05/03 05:04:20;;;;;;;8.43;5.45;;;17.10;13.30;;;;;;5378191;26;20278;-69
2024/05/03 05:06:45;;;;;;;6.95;5.43;;;17.20;13.30;;;;;;5378257;26;20273;-69
2024/05/03 05:09:12;;;;;;;5.90;4.88;;;17.20;13.50;;;;;;5361548;26;20239;-69
2024/05/03 05:11:37;;;;;;;9.60;5.88;;;17.10;13.20;;;;;;5378304;26;20235;-69
2024/05/03 05:14:03;;;;;;;11.55;6.03;;;17.10;13.90;;;;;;5378204;26;20240;-69
2024/05/03 05:16:28;;;;;;;9.35;5.93;;;17.10;14.50;;;;;;5378006;26;20957;-69
2024/05/03 05:18:55;;;;;;;9.25;6.05;;;17.10;14.40;;;;;;5377993;26;20235;-68
2024/05/03 05:24:05;;;;;;;8.65;5.68;;;17.20;14.90;;;;;;5375353;26;20286;-69
2024/05/03 05:26:30;;;;;;;11.73;6.72;;;17.20;14.30;;;;;;5377251;26;21295;-68
2024/05/03 05:28:56;;;;;;;13.38;5.85;;;17.30;14.30;;;;;;5371509;26;20274;-68
2024/05/03 05:31:24;;;;;;;17.90;6.05;;;17.60;15.20;;;;;;5377778;26;20299;-68
2024/05/03 05:33:50;;;;;;;15.10;6.25;;;17.30;15.40;;;;;;5377523;26;20274;-70
2024/05/03 05:36:26;;;;;;;12.95;6.30;;;17.30;15.40;;;;;;5361339;26;20244;-68
2024/05/03 05:38:56;;;;;;;13.55;6.40;;;17.40;15.20;;;;;;5377499;26;20301;-70
2024/05/03 05:41:22;;;;;;;14.32;6.30;;;17.50;15.20;;;;;;5377777;26;20377;-70
2024/05/03 05:43:47;;;;;;;9.38;6.22;;;17.50;15.30;;;;;;5361738;26;20349;-70
2024/05/03 05:46:13;;;;;;;13.07;7.22;;;17.60;14.80;;;;;;5377190;26;20239;-69
2024/05/03 05:48:39;;;;;;;10.55;6.00;;;17.60;14.80;;;;;;5377706;26;20232;-70
2024/05/03 05:51:05;;;;;;;19.90;6.18;;;17.70;14.70;;;;;;5377811;26;20291;-69
2024/05/03 05:53:32;;;;;;;12.10;5.63;;;17.70;14.90;;;;;;5377564;26;20279;-69
2024/05/03 05:56:00;;;;;;;12.20;6.13;;;18.00;15.20;;;;;;5373740;26;20392;-67
2024/05/03 05:58:26;;;;;;;10.07;6.22;;;17.90;14.50;;;;;;5362202;26;20240;-69
2024/05/03 06:00:51;;;;;;;8.27;5.90;;;17.90;13.70;;;;;;5377358;26;20389;-69
2024/05/03 06:03:17;;;;;;;12.43;6.95;;;18.00;13.90;;;;;;5377456;26;20236;-70
2024/05/03 06:05:43;;;;;;;12.32;6.80;;;18.00;13.30;;;;;;5377556;26;20353;-68
2024/05/03 06:08:08;;;;;;;9.68;5.18;;;18.10;13.70;;;;;;5377399;26;20732;-69
2024/05/03 06:10:34;;;;;;;6.38;5.03;;;18.20;13.70;;;;;;5360484;26;20310;-69
2024/05/03 06:12:59;;;;;;;8.27;4.63;;;18.30;13.30;;;;;;5376661;26;20254;-69
2024/05/03 06:15:25;;;;;;;10.52;4.70;;;18.50;13.60;;;;;;5377242;26;20282;-69
2024/05/03 06:17:50;;;;;;;9.23;4.88;;;18.70;13.10;;;;;;5377431;26;20729;-69
2024/05/03 06:20:16;;;;;;;8.75;5.03;;;18.80;11.40;;;;;;5377361;26;20228;-69
2024/05/03 06:22:43;;;;;;;9.35;5.00;;;19.00;10.50;;;;;;5378860;26;20321;-69
2024/05/03 06:25:09;;;;;;;7.25;4.43;;;19.10;9.70;;;;;;5377325;26;20278;-69
2024/05/03 06:27:35;;;;;;;9.27;4.60;;;19.30;9.30;;;;;;5346832;26;20567;-68
2024/05/03 06:30:01;;;;;;;11.02;4.38;;;19.30;9.00;;;;;;5377870;26;20278;-68
2024/05/03 06:32:27;;;;;;;7.68;4.90;;;19.40;9.50;;;;;;5377713;26;20282;-68
2024/05/03 06:34:53;;;;;;;9.23;4.68;;;19.40;8.90;;;;;;5376894;26;20269;-69
2024/05/03 06:37:24;;;;;;;5.78;4.20;;;19.40;8.70;;;;;;5377552;26;20220;-68
2024/05/03 06:39:50;;;;;;;11.30;4.38;;;19.50;8.50;;;;;;5377342;26;20621;-68
2024/05/03 06:42:15;;;;;;;5.15;4.20;;;19.60;9.00;;;;;;5377242;26;20236;-68
2024/05/03 06:44:41;;;;;;;6.65;4.00;;;19.60;9.00;;;;;;5377244;26;20270;-68
2024/05/03 06:47:07;;;;;;;10.65;5.22;;;19.70;9.10;;;;;;5346458;26;20250;-68
2024/05/03 06:49:32;;;;;;;5.13;4.10;;;19.70;8.80;;;;;;5377317;26;20325;-69
2024/05/03 06:51:58;;;;;;;7.65;3.97;;;19.80;8.30;;;;;;5377217;26;20240;-70
2024/05/03 06:54:23;;;;;;;5.22;3.80;;;20.20;8.90;;;;;;5377773;26;20270;-69
2024/05/03 06:56:49;;;;;;;9.15;4.22;;;19.90;8.60;;;;;;5377125;26;20223;-69
2024/05/03 06:59:14;;;;;;;5.68;3.85;;;20.00;8.60;;;;;;5377999;26;20576;-69
2024/05/03 07:01:40;;;;;;;5.18;3.53;;;20.10;8.20;;;;;;5376956;26;20224;-69
2024/05/03 07:04:06;;;;;;;6.13;3.10;;;20.10;8.20;;;;;;5407491;21;20284;-72
2024/05/03 07:06:31;;;;;;;3.92;3.28;;;20.30;6.50;;;;;;5412847;26;20286;-72
2024/05/03 07:08:57;;;;;;;3.08;2.78;;;20.20;6.50;;;;;;5412644;26;20218;-72
2024/05/03 07:11:22;;;;;;;3.58;3.22;;;20.20;5.00;;;;;;5412689;26;20226;-71
2024/05/03 07:13:48;;;;;;;3.00;2.70;;;20.20;5.40;;;;;;5412712;26;20629;-72
2024/05/03 07:16:17;;;;;;;4.30;2.92;;;20.40;5.00;;;;;;5412139;26;20811;-71
2024/05/03 07:18:42;;;;;;;3.85;3.25;;;20.40;5.00;;;;;;5412050;26;20274;-71
2024/05/03 07:21:08;;;;;;;2.85;2.47;;;20.50;5.00;;;;;;5379302;26;20723;-71
2024/05/03 07:23:34;;;;;;;2.88;2.65;;;20.80;5.00;;;;;;5412417;26;20247;-72
2024/05/03 07:26:00;;;;;;;2.22;2.03;;;20.70;5.00;;;;;;5411411;26;20235;-72
2024/05/03 07:28:25;;;;;;;2.38;2.17;;;20.80;5.00;;;;;;5412301;26;20307;-71
2024/05/03 07:30:51;;;;;;;5.28;2.35;;;20.90;5.00;;;;;;5412576;26;20617;-73
2024/05/03 07:33:17;;;;;;;2.53;2.33;;;21.00;5.00;;;;;;5412630;26;20648;-73
2024/05/03 07:35:42;;;;;;;3.53;2.40;;;21.10;5.00;;;;;;5380441;26;20230;-73
2024/05/03 07:38:08;;;;;;;6.22;2.20;;;21.10;5.00;;;;;;5412457;26;20235;-73
2024/05/03 07:40:33;;;;;;;2.78;2.20;;;21.30;5.00;;;;;;5412098;26;20257;-73
2024/05/03 07:42:59;;;;;;;2.75;2.20;;;21.30;5.00;;;;;;5412326;26;20296;-72
2024/05/03 07:45:24;;;;;;;6.05;2.88;;;21.40;5.00;;;;;;5412008;26;20222;-72
2024/05/03 07:47:50;;;;;;;2.63;2.42;;;21.40;5.00;;;;;;5412162;26;20734;-72
2024/05/03 07:50:15;;;;;;;2.33;2.05;;;21.40;5.00;;;;;;5411239;26;20222;-72
2024/05/03 07:52:41;;;;;;;6.30;4.55;;;21.50;5.00;;;;;;5411645;26;20269;-72
2024/05/03 07:55:07;;;;;;;2.45;2.25;;;21.70;5.00;;;;;;5411715;26;20316;-72
2024/05/03 07:57:32;;;;;;;2.72;2.45;;;21.80;5.00;;;;;;5412405;26;20223;-72
2024/05/03 07:59:58;;;;;;;2.15;2.05;;;22.00;5.00;;;;;;5411699;26;20851;-72
2024/05/03 08:02:24;;;;;;;3.78;2.15;;;22.10;5.00;;;;;;5411869;26;20222;-72
2024/05/03 08:04:49;;;;;;;3.17;2.30;;;22.20;5.00;;;;;;5411264;26;20337;-72
2024/05/03 08:07:14;;;;;;;3.72;2.15;;;22.20;5.00;;;;;;5411907;26;20580;-72
2024/05/03 08:09:40;;;;;;;3.42;1.60;;;22.40;5.00;;;;;;5411445;26;20231;-72
2024/05/03 08:12:06;;;;;;;2.13;1.92;;;22.60;5.00;;;;;;5411891;26;20656;-72
2024/05/03 08:14:31;;;;;;;1.50;1.40;;;22.70;5.00;;;;;;5411363;26;20234;-72
2024/05/03 08:16:57;;;;;;;1.98;1.80;;;22.80;5.00;;;;;;5410468;26;20690;-72
2024/05/03 08:19:22;;;;;;;1.13;1.10;;;23.00;5.00;;;;;;5410983;26;20219;-72
2024/05/03 08:21:48;;;;;;;2.45;2.20;;;23.00;5.00;;;;;;5411427;26;20343;-72
2024/05/03 08:24:13;;;;;;;1.92;1.83;;;23.10;5.00;;;;;;5411659;26;20281;-72
2024/05/03 08:26:39;;;;;;;3.45;1.48;;;23.20;5.00;;;;;;5411086;26;21021;-72
2024/05/03 08:29:04;;;;;;;1.40;1.30;;;23.00;5.00;;;;;;5411213;26;20215;-72
2024/05/03 08:31:30;;;;;;;1.27;1.20;;;22.80;5.00;;;;;;5411460;26;20863;-72
2024/05/03 08:33:55;;;;;;;1.08;1.08;;;22.70;5.00;;;;;;5411066;26;20239;-72
2024/05/03 08:36:20;;;;;;;1.00;1.00;;;22.70;5.00;;;;;;5410872;26;20223;-72
2024/05/03 08:38:46;;;;;;;1.75;1.00;;;22.70;5.00;;;;;;5411139;26;20223;-72
2024/05/03 08:41:12;;;;;;;1.38;1.15;;;22.70;5.00;;;;;;5411140;26;20611;-71
2024/05/03 08:44:00;;;;;;;1.33;1.33;;;22.60;5.00;;;;;;5379636;26;20238;-72
2024/05/03 08:46:28;;;;;;;1.40;1.27;;;22.50;5.00;;;;;;5411034;26;20335;-72
2024/05/03 08:48:53;;;;;;;1.27;1.27;;;22.40;5.00;;;;;;5410969;26;20219;-72
2024/05/03 08:51:20;;;;;;;1.13;1.13;;;22.20;5.00;;;;;;5379866;26;20320;-71
2024/05/03 08:53:53;;;;;;;1.88;1.13;;;22.20;5.00;;;;;;5411092;26;20243;-72
2024/05/03 08:56:19;;;;;;;1.52;0.90;;;22.10;5.00;;;;;;5410682;26;20231;-73
2024/05/03 08:58:46;;;;;;;1.50;1.40;;;22.10;5.00;;;;;;5410853;26;20559;-72
2024/05/03 09:01:11;;;;;;;6.32;4.15;;;22.10;5.00;;;;;;5410505;26;20223;-72
2024/05/03 09:03:37;;;;;;;2.80;1.88;;;22.00;5.00;;;;;;5412646;26;20331;-73
2024/05/03 09:06:03;;;;;;;1.30;1.20;;;22.00;5.00;;;;;;5414544;26;20235;-73
2024/05/03 09:08:51;;;;;;;2.25;0.98;;;22.00;5.00;;;;;;5383373;26;20238;-72
2024/05/03 09:11:22;;;;;;;1.50;1.33;;;21.90;5.00;;;;;;5414437;26;20279;-72
2024/05/03 09:13:51;;;;;;;2.85;1.33;;;21.70;5.00;;;;;;5414091;26;20722;-72
2024/05/03 09:16:26;;;;;;;2.13;1.38;;;21.70;5.00;;;;;;5413903;26;20285;-73
2024/05/03 09:18:52;;;;;;;1.27;1.17;;;21.60;5.00;;;;;;5413979;26;20291;-72
2024/05/03 09:21:19;;;;;;;3.22;1.25;;;21.60;5.00;;;;;;5413975;26;20291;-72
2024/05/03 09:23:45;;;;;;;1.33;1.23;;;21.60;5.00;;;;;;5414241;26;20235;-73
2024/05/03 09:26:10;;;;;;;1.58;1.48;;;21.70;5.00;;;;;;5413812;26;20282;-72
2024/05/03 09:28:42;;;;;;;1.67;1.13;;;21.70;5.00;;;;;;5414096;26;20223;-72
2024/05/03 09:31:09;;;;;;;2.22;1.35;;;21.80;5.00;;;;;;5414091;26;20568;-73
2024/05/03 09:33:35;;;;;;;1.67;1.58;;;21.90;5.00;;;;;;5414030;26;20277;-73
2024/05/03 09:36:02;;;;;;;1.70;1.60;;;22.10;5.00;;;;;;5413662;26;20223;-71
2024/05/03 09:38:27;;;;;;;1.67;1.35;;;22.00;5.00;;;;;;5414121;26;20227;-73
2024/05/03 09:40:53;;;;;;;1.70;1.60;;;21.90;5.00;;;;;;5413292;26;20257;-73
2024/05/03 09:43:20;;;;;;;1.75;1.20;;;21.90;5.00;;;;;;5413764;26;20235;-72
2024/05/03 09:45:52;;;;;;;1.60;1.50;;;22.00;5.00;;;;;;5413735;26;20311;-72
2024/05/03 09:48:26;;;;;;;1.20;1.20;;;22.10;5.00;;;;;;5413749;26;20293;-72
2024/05/03 09:50:57;;;;;;;1.65;1.55;;;22.30;5.00;;;;;;5413841;26;20801;-72
2024/05/03 09:53:25;;;;;;;2.08;1.10;;;22.20;5.00;;;;;;5413452;26;20666;-72
2024/05/03 09:56:08;;;;;;;3.65;3.00;;;22.30;5.00;;;;;;5413525;26;20254;-72
2024/05/03 09:58:51;;;;;;;3.45;1.33;;;22.10;5.00;;;;;;5413468;26;20222;-72
2024/05/03 10:01:27;;;;;;;1.10;1.00;;;22.10;5.00;;;;;;5413840;26;20308;-73
2024/05/03 10:03:53;;;;;;;1.10;1.10;;;22.10;5.00;;;;;;5382412;26;20234;-73
2024/05/03 10:06:19;;;;;;;1.20;1.10;;;22.00;5.00;;;;;;5413369;26;20327;-72
2024/05/03 10:08:45;;;;;;;2.22;1.25;;;22.00;5.00;;;;;;5413241;26;20282;-73
2024/05/03 10:11:12;;;;;;;5.20;1.08;;;22.00;5.00;;;;;;5413681;26;20331;-73
2024/05/03 10:13:41;;;;;;;1.30;1.20;;;22.10;5.00;;;;;;5413176;26;20278;-73
2024/05/03 10:16:07;;;;;;;1.02;1.02;;;22.00;5.00;;;;;;5412978;26;20691;-73
2024/05/03 10:18:35;;;;;;;1.25;1.15;;;21.90;5.00;;;;;;5413552;26;20231;-72
2024/05/03 10:21:01;;;;;;;1.20;1.20;;;21.90;5.00;;;;;;5413093;26;20257;-71
2024/05/03 10:23:28;;;;;;;1.10;1.00;;;21.80;5.00;;;;;;5413236;26;20235;-72
2024/05/03 10:25:53;;;;;;;2.53;1.42;;;21.70;5.00;;;;;;5413502;26;20234;-71
2024/05/03 10:28:19;;;;;;;1.63;1.02;;;21.70;5.00;;;;;;5413469;26;20791;-72
2024/05/03 10:30:49;;;;;;;1.17;1.08;;;21.80;5.00;;;;;;5412947;26;20223;-72
2024/05/03 10:33:17;;;;;;;2.58;1.33;;;21.90;5.00;;;;;;5414197;26;20238;-71
2024/05/03 10:35:44;;;;;;;1.75;1.05;;;22.00;5.00;;;;;;5413112;26;20223;-72
2024/05/03 10:38:10;;;;;;;4.75;1.08;;;22.00;5.00;;;;;;5413037;26;20613;-73
2024/05/03 10:40:36;;;;;;;1.33;1.23;;;22.20;5.00;;;;;;5413002;26;20214;-72
2024/05/03 10:43:03;;;;;;;0.98;0.98;;;22.30;5.00;;;;;;5412908;26;20296;-73
2024/05/03 10:45:30;;;;;;;2.55;1.15;;;22.30;5.00;;;;;;5412440;26;20269;-72
2024/05/03 10:47:57;;;;;;;1.10;1.00;;;22.20;5.00;;;;;;5413317;26;20358;-72
2024/05/03 10:50:23;;;;;;;1.42;1.08;;;22.20;5.00;;;;;;5413107;26;20912;-72
2024/05/03 10:52:50;;;;;;;1.63;1.10;;;22.10;5.00;;;;;;5414362;26;20227;-72
2024/05/03 10:55:16;;;;;;;1.25;1.15;;;22.00;5.00;;;;;;5412795;26;20273;-72
2024/05/03 10:57:42;;;;;;;1.20;1.10;;;21.90;5.00;;;;;;5412533;26;20227;-71
2024/05/03 11:00:10;;;;;;;1.25;1.00;;;21.80;5.00;;;;;;5412317;26;20266;-72
2024/05/03 11:02:36;;;;;;;1.85;1.15;;;21.70;5.00;;;;;;5411857;26;20263;-72
2024/05/03 11:05:05;;;;;;;8.68;5.90;;;21.70;5.00;;;;;;5411390;26;20239;-72
2024/05/03 11:07:35;;;;;;;1.48;1.38;;;21.50;5.00;;;;;;5412718;26;20223;-72
2024/05/03 11:10:02;;;;;;;3.33;1.40;;;21.40;5.00;;;;;;5412546;26;20227;-72
2024/05/03 11:12:28;;;;;;;1.27;1.17;;;21.40;5.00;;;;;;5414068;26;20270;-70
2024/05/03 11:14:54;;;;;;;2.08;1.30;;;21.20;5.00;;;;;;5415278;26;20777;-72
2024/05/03 11:17:24;;;;;;;1.50;0.90;;;21.10;5.00;;;;;;5412390;26;20223;-72
2024/05/03 11:19:50;;;;;;;1.15;1.05;;;21.10;5.00;;;;;;5413515;26;20218;-73
2024/05/03 11:22:23;;;;;;;1.15;0.98;;;21.20;5.00;;;;;;5410910;26;20269;-73
2024/05/03 11:24:49;;;;;;;1.45;1.15;;;21.20;5.00;;;;;;5411802;26;20239;-72
2024/05/03 11:27:15;;;;;;;2.83;1.20;;;21.30;5.00;;;;;;5411500;26;21060;-72
2024/05/03 11:29:41;;;;;;;0.90;0.90;;;21.40;5.00;;;;;;5412059;26;20282;-72
2024/05/03 11:32:07;;;;;;;1.50;1.33;;;21.40;5.00;;;;;;5412462;26;20312;-72
2024/05/03 11:34:36;;;;;;;2.63;1.42;;;21.50;5.00;;;;;;5412461;26;20606;-72
2024/05/03 11:37:03;;;;;;;1.13;1.02;;;21.50;5.00;;;;;;5412361;26;20231;-71
2024/05/03 11:39:28;;;;;;;2.30;1.10;;;21.50;5.00;;;;;;5412183;26;20219;-72
2024/05/03 11:41:54;;;;;;;2.13;1.17;;;21.40;5.00;;;;;;5412205;26;20323;-72
2024/05/03 11:44:20;;;;;;;1.10;1.02;;;21.30;5.00;;;;;;5412033;26;20585;-71
2024/05/03 11:46:45;;;;;;;2.13;0.80;;;21.20;5.00;;;;;;5411678;26;20218;-72
2024/05/03 11:49:11;;;;;;;0.80;0.80;;;21.10;5.00;;;;;;5412088;26;20955;-72
2024/05/03 11:51:36;;;;;;;1.23;1.00;;;21.10;5.00;;;;;;5412477;26;20265;-72
2024/05/03 11:54:03;;;;;;;0.70;0.70;;;21.20;5.00;;;;;;5412328;26;20269;-72
2024/05/03 11:56:30;;;;;;;0.90;0.90;;;21.20;5.00;;;;;;5411811;26;20657;-73
2024/05/03 11:58:56;;;;;;;1.63;0.88;;;21.20;5.00;;;;;;5411833;26;20319;-72
2024/05/03 12:01:22;;;;;;;0.70;0.70;;;21.30;5.00;;;;;;5412038;26;20230;-72
2024/05/03 12:03:48;;;;;;;1.20;1.08;;;21.40;5.00;;;;;;5411566;26;20238;-72
2024/05/03 12:06:13;;;;;;;1.30;1.10;;;21.50;5.00;;;;;;5411664;26;20302;-73
2024/05/03 12:08:39;;;;;;;0.70;0.70;;;21.40;5.00;;;;;;5380875;26;20283;-73
2024/05/03 12:11:05;;;;;;;1.00;0.90;;;21.70;5.00;;;;;;5411312;26;20263;-73
2024/05/03 12:13:30;;;;;;;2.15;0.95;;;21.50;5.00;;;;;;5411347;26;20846;-72
2024/05/03 12:15:56;;;;;;;4.88;1.13;;;21.50;5.00;;;;;;5411466;26;21092;-72
2024/05/03 12:18:21;;;;;;;1.10;0.98;;;21.40;5.00;;;;;;5411601;26;20219;-72
2024/05/03 12:20:47;;;;;;;3.78;1.05;;;21.40;5.00;;;;;;5410433;26;20219;-72
2024/05/03 12:23:13;;;;;;;1.20;1.10;;;21.30;5.00;;;;;;5410973;26;20231;-73
2024/05/03 12:25:38;;;;;;;0.95;0.90;;;21.30;5.00;;;;;;5411308;26;20218;-72
2024/05/03 12:28:04;;;;;;;0.70;0.70;;;21.30;5.00;;;;;;5411145;26;20327;-72
2024/05/03 12:30:29;;;;;;;1.02;1.02;;;21.20;5.00;;;;;;5407876;26;20726;-72
2024/05/03 12:32:55;;;;;;;1.05;0.90;;;21.20;5.00;;;;;;5410799;26;20253;-71
2024/05/03 12:35:21;;;;;;;6.78;1.35;;;21.20;5.00;;;;;;5379595;26;20362;-72
2024/05/03 12:37:47;;;;;;;1.85;1.15;;;21.20;5.00;;;;;;5413252;26;20300;-73
2024/05/03 12:40:12;;;;;;;1.52;1.42;;;21.20;5.00;;;;;;5415823;26;20230;-73
2024/05/03 12:42:38;;;;;;;0.70;0.70;;;21.30;5.00;;;;;;5415927;26;20257;-72
2024/05/03 12:45:04;;;;;;;0.77;0.77;;;21.30;5.00;;;;;;5415151;26;20243;-72
2024/05/03 12:47:31;;;;;;;1.42;0.77;;;21.20;5.00;;;;;;5416298;26;20234;-72
2024/05/03 12:49:57;;;;;;;1.25;0.77;;;21.20;5.00;;;;;;5414705;26;20628;-72